createdAt,value
2022-11-21T00:03:42.262Z,8.6
2022-11-21T00:09:19.454Z,8.6
2022-11-21T00:14:56.461Z,8.6
2022-11-21T00:20:23.596Z,8.5
2022-11-21T00:25:49.445Z,8.5
2022-11-21T00:31:26.674Z,8.5
2022-11-21T00:36:48.567Z,8.5
2022-11-21T00:42:25.381Z,8.6
2022-11-21T00:48:02.282Z,8.5
2022-11-21T00:53:08.309Z,8.4
2022-11-21T01:03:51.565Z,8.3
2022-11-21T01:09:12.803Z,8.3
2022-11-21T01:14:19.536Z,8.3
2022-11-21T01:19:42.113Z,8.3
2022-11-21T01:25:19.406Z,8.3
2022-11-21T01:30:56.559Z,8.3
2022-11-21T01:41:41.394Z,8.5
2022-11-21T01:47:19.603Z,8.6
2022-11-21T01:53:04.707Z,8.6
2022-11-21T01:58:27.250Z,8.6
2022-11-21T02:03:34.644Z,8.6
2022-11-21T02:08:57.668Z,8.6
2022-11-21T02:14:04.213Z,8.6
2022-11-21T02:19:26.922Z,8.7
2022-11-21T02:24:55.381Z,8.7
2022-11-21T02:29:45.925Z,8.7
2022-11-21T02:35:07.117Z,8.7
2022-11-21T02:40:29.886Z,8.8
2022-11-21T02:45:52.885Z,8.8
2022-11-21T02:51:30.496Z,8.8
2022-11-21T02:57:09.603Z,8.9
2022-11-21T03:02:37.131Z,8.9
2022-11-21T03:08:15.420Z,8.9
2022-11-21T03:13:53.268Z,9
2022-11-21T03:19:15.290Z,9.1
2022-11-21T03:24:52.998Z,9.1
2022-11-21T03:30:30.842Z,9.1
2022-11-21T03:36:08.099Z,9.2
2022-11-21T03:41:46.607Z,9.2
2022-11-21T03:47:09.454Z,9.1
2022-11-21T03:52:46.699Z,9.1
2022-11-21T03:58:08.995Z,9.2
2022-11-21T04:03:52.770Z,9.3
2022-11-21T04:09:30.953Z,9.3
2022-11-21T04:15:13.327Z,9.3
2022-11-21T04:20:52.167Z,9.5
2022-11-21T04:26:29.057Z,9.7
2022-11-21T04:32:07.433Z,9.6
2022-11-21T04:42:52.034Z,9.3
2022-11-21T04:48:17.565Z,9.1
2022-11-21T04:54:00.450Z,8.9
2022-11-21T04:59:07.187Z,8.8
2022-11-21T05:04:45.944Z,8.6
2022-11-21T05:09:52.767Z,8.5
2022-11-21T05:15:30.207Z,8.3
2022-11-21T05:21:11.015Z,8.2
2022-11-21T05:26:33.738Z,8
2022-11-21T05:31:58.683Z,7.9
2022-11-21T05:37:41.811Z,7.8
2022-11-21T05:43:19.820Z,7.6
2022-11-21T05:48:57.272Z,7.5
2022-11-21T05:53:48.430Z,7.4
2022-11-21T05:59:30.815Z,7.3
2022-11-21T06:04:58.624Z,7.1
2022-11-21T06:10:40.819Z,7
2022-11-21T06:16:07.270Z,6.9
2022-11-21T06:21:18.856Z,6.8
2022-11-21T06:26:58.103Z,6.7
2022-11-21T06:32:41.437Z,6.6
2022-11-21T06:38:09.665Z,6.6
2022-11-21T06:43:47.657Z,6.4
2022-11-21T06:49:11.588Z,6.4
2022-11-21T06:54:51.724Z,6.3
2022-11-21T07:00:29.209Z,6.1
2022-11-21T07:06:12.879Z,6
2022-11-21T07:12:53.591Z,5.8
2022-11-21T07:18:31.706Z,5.8
2022-11-21T07:24:13.003Z,5.6
2022-11-21T07:29:51.999Z,5.6
2022-11-21T07:35:30.329Z,5.5
2022-11-21T07:40:53.168Z,5.4
2022-11-21T07:46:36.513Z,5.4
2022-11-21T07:51:58.505Z,5.4
2022-11-21T07:57:41.938Z,5.5
2022-11-21T08:03:06.072Z,5.7
2022-11-21T08:08:44.743Z,6.1
2022-11-21T08:14:28.357Z,7.2
2022-11-21T08:20:06.055Z,9.4
2022-11-21T08:25:49.155Z,11.6
2022-11-21T08:31:33.591Z,12.8
2022-11-21T08:37:12.139Z,13.6
2022-11-21T08:42:34.721Z,15.1
2022-11-21T08:48:25.539Z,16.1
2022-11-21T08:54:08.111Z,15.9
2022-11-21T08:59:47.187Z,15.8
2022-11-21T09:05:31.892Z,15.8
2022-11-21T09:10:55.525Z,15.6
2022-11-21T09:16:38.113Z,15.3
2022-11-21T09:22:22.764Z,15.4
2022-11-21T09:28:00.489Z,15.4
2022-11-21T09:33:38.773Z,14.9
2022-11-21T09:39:20.025Z,14.3
2022-11-21T09:44:57.942Z,13.6
2022-11-21T09:50:36.224Z,12.9
2022-11-21T09:56:16.789Z,12.1
2022-11-21T10:01:54.838Z,11.4
2022-11-21T10:07:39.530Z,10.8
2022-11-21T10:13:21.849Z,10.3
2022-11-21T10:19:01.621Z,9.9
2022-11-21T10:24:39.987Z,9.8
2022-11-21T10:30:18.850Z,9.7
2022-11-21T10:35:57.413Z,9.6
2022-11-21T10:41:39.898Z,9.6
2022-11-21T10:47:03.167Z,9.4
2022-11-21T10:52:41.193Z,9.3
2022-11-21T10:58:23.531Z,9.1
2022-11-21T11:04:44.369Z,8.9
2022-11-21T11:10:10.001Z,8.9
2022-11-21T11:16:05.559Z,9.1
2022-11-21T11:21:59.048Z,9.3
2022-11-21T11:27:22.800Z,9.7
2022-11-21T11:33:00.975Z,9.9
2022-11-21T11:38:23.764Z,10
2022-11-21T11:43:48.840Z,10.3
2022-11-21T11:49:57.024Z,10.6
2022-11-21T11:55:35.175Z,11.3
2022-11-21T12:01:13.999Z,11.9
2022-11-21T12:14:18.293Z,14.2
2022-11-21T12:20:04.628Z,14.3
2022-11-21T12:25:44.098Z,14.1
2022-11-21T12:31:22.619Z,14
2022-11-21T12:37:13.824Z,13.8
2022-11-21T12:42:58.320Z,13.8
2022-11-21T12:48:25.289Z,13.9
2022-11-21T12:54:09.463Z,14.3
2022-11-21T12:59:51.165Z,14.2
2022-11-21T13:05:20.902Z,13.6
2022-11-21T13:11:00.719Z,12.8
2022-11-21T13:16:39.562Z,12.2
2022-11-21T13:22:17.077Z,11.6
2022-11-21T13:27:40.982Z,11.1
2022-11-21T13:33:21.115Z,10.6
2022-11-21T13:38:59.930Z,10.1
2022-11-21T13:45:16.801Z,9.8
2022-11-21T13:51:02.338Z,9.4
2022-11-21T13:56:48.572Z,9.2
2022-11-21T14:02:27.167Z,8.9
2022-11-21T14:08:06.389Z,8.6
2022-11-21T14:13:49.010Z,8.3
2022-11-21T14:19:26.626Z,8
2022-11-21T14:25:10.530Z,7.8
2022-11-21T14:30:55.121Z,7.5
2022-11-21T14:36:36.681Z,7.3
2022-11-21T14:42:53.854Z,7.1
2022-11-21T14:48:22.192Z,6.8
2022-11-21T14:54:07.310Z,6.6
2022-11-21T15:00:36.584Z,6.4
2022-11-21T15:06:50.492Z,6.3
2022-11-21T15:14:32.870Z,6
2022-11-21T15:20:45.996Z,5.8
2022-11-21T15:26:23.905Z,5.4
2022-11-21T15:32:06.589Z,5.3
2022-11-21T15:38:24.137Z,5
2022-11-21T16:01:14.260Z,4.4
2022-11-21T16:06:44.111Z,4.4
2022-11-21T16:12:28.797Z,4.3
2022-11-21T16:18:11.717Z,4.2
2022-11-21T16:23:57.868Z,4.1
2022-11-21T16:29:35.889Z,4
2022-11-21T16:34:59.316Z,4
2022-11-21T16:40:47.191Z,3.9
2022-11-21T16:46:09.915Z,3.9
2022-11-21T16:51:52.474Z,3.8
2022-11-21T16:57:34.810Z,3.8
2022-11-21T17:02:59.532Z,3.8
2022-11-21T17:08:38.361Z,3.8
2022-11-21T17:14:00.702Z,3.7
2022-11-21T17:19:39.456Z,3.7
2022-11-21T17:25:02.667Z,3.7
2022-11-21T17:30:46.930Z,3.6
2022-11-21T17:36:28.521Z,3.6
2022-11-21T17:42:07.570Z,3.6
2022-11-21T17:47:53.012Z,3.6
2022-11-21T17:53:16.684Z,3.6
2022-11-21T17:58:46.996Z,3.6
2022-11-21T18:04:32.844Z,3.5
2022-11-21T18:10:35.575Z,3.4
2022-11-21T18:16:12.315Z,3.5
2022-11-21T18:21:43.295Z,3.4
2022-11-21T18:27:22.368Z,3.4
2022-11-21T18:33:03.329Z,3.3
2022-11-21T18:38:47.203Z,3.3
2022-11-21T18:44:39.921Z,3.3
2022-11-21T18:50:48.637Z,3.3
2022-11-21T18:56:31.366Z,3.3
2022-11-21T19:01:55.408Z,3.3
2022-11-21T19:07:22.962Z,3.3
2022-11-21T19:13:02.670Z,3.2
2022-11-21T19:18:44.449Z,3.3
2022-11-21T19:24:56.823Z,3.3
2022-11-21T19:30:36.627Z,3.3
2022-11-21T19:36:19.462Z,3.3
2022-11-21T19:41:45.111Z,3.4
2022-11-21T19:47:10.783Z,3.4
2022-11-21T19:53:01.905Z,3.4
2022-11-21T19:58:11.188Z,3.4
2022-11-21T20:03:39.025Z,3.3
2022-11-21T20:09:34.673Z,3.3
2022-11-21T20:15:05.107Z,3.4
2022-11-21T20:20:29.247Z,3.4
2022-11-21T20:26:12.066Z,3.4
2022-11-21T20:31:55.882Z,3.4
2022-11-21T20:38:26.584Z,3.4
2022-11-21T20:54:47.837Z,3.2
2022-11-21T21:00:28.268Z,3.1
2022-11-21T21:06:07.481Z,3.1
2022-11-21T21:12:25.040Z,3.1
2022-11-21T21:18:10.173Z,3.2
2022-11-21T21:24:06.519Z,3.2
2022-11-21T21:29:52.818Z,3.3
2022-11-21T21:35:35.388Z,3.3
2022-11-21T21:41:17.835Z,3.2
2022-11-21T21:46:56.958Z,3.1
2022-11-21T21:52:35.441Z,3
2022-11-21T21:58:20.020Z,2.9
2022-11-21T22:03:58.801Z,2.9
2022-11-21T22:09:10.002Z,2.9
2022-11-21T22:14:47.338Z,2.9
2022-11-21T22:20:25.853Z,2.9
2022-11-21T22:26:22.119Z,2.9
2022-11-21T22:31:44.815Z,2.9
2022-11-21T22:37:25.664Z,2.9
2022-11-21T22:42:53.763Z,2.8
2022-11-21T22:48:32.289Z,2.8
2022-11-21T22:53:57.928Z,2.7
2022-11-21T22:59:36.357Z,2.6
2022-11-21T23:05:14.659Z,2.6
2022-11-21T23:10:53.159Z,2.6
2022-11-21T23:16:16.497Z,2.6
2022-11-21T23:21:23.588Z,2.6
2022-11-21T23:26:45.959Z,2.7
2022-11-21T23:32:08.874Z,2.7
2022-11-21T23:37:45.678Z,2.6
2022-11-21T23:43:23.613Z,2.6
2022-11-21T23:48:46.302Z,2.6
2022-11-21T23:54:08.430Z,2.6
2022-11-21T23:59:47.148Z,2.5
